North Randall, Ohio
Current Conditions -  °F | °C
As of 12:53 AM on Sunday 26 Oct 2014 (Local Time) from KBKL Reporting Station
Clear Clear  
Wind Chill: 57°   Ceiling: Unl
Heat Index: 57°   Visibility: 10mi
Dew Point: 44°   Wind: 18mph
Humidity: 62%   Direction: 280°W
Pressure: 29.79"   Gusts: NA
Location:  41.4368°N, 81.5396°W
Report Text: KBKL 260453Z AUTO 28016KT 10SM CLR 14/07 A2979 RMK AO2 SLP087 T01390067 401890117
Loading
Personal Weather Stations






























Interactive Weather Map
Tropical Storm Tracking
New forecast layout! Learn more

10-Day Weather Forecast

Advertisements
Track Severe Weather on mobile